Time;durP1;ratioP1;P1;durP2;ratioP2;P2;SDS_P1;SDS_P2;PMS_P1;PMS_P2;Temp;Humidity;BMP_temperature;BMP_pressure;BME280_temperature;BME280_humidity;BME280_pressure;Samples;Min_cycle;Max_cycle;Signal;HPM_P1;HPM_P2
2022/10/08 00:01:10;;;;;;;9.88;3.33;;;11.60;99.90;;;;;;5051701;28;20416;-66
2022/10/08 00:03:39;;;;;;;7.40;3.05;;;11.60;99.90;;;;;;5035037;28;20045;-66
2022/10/08 00:06:10;;;;;;;16.33;3.72;;;11.60;99.90;;;;;;5051463;28;20067;-66
2022/10/08 00:08:40;;;;;;;9.38;3.70;;;11.50;99.90;;;;;;5051615;28;20456;-66
2022/10/08 00:11:12;;;;;;;9.52;3.40;;;11.50;99.90;;;;;;5035192;28;20118;-66
2022/10/08 00:13:40;;;;;;;16.33;4.30;;;11.50;99.90;;;;;;5053634;28;20427;-66
2022/10/08 00:16:11;;;;;;;15.63;3.72;;;11.40;99.90;;;;;;5055028;28;20049;-66
2022/10/08 00:18:39;;;;;;;19.50;6.05;;;11.40;99.90;;;;;;5056743;28;20049;-66
2022/10/08 00:21:21;;;;;;;13.35;4.68;;;11.40;99.90;;;;;;5054899;28;20044;-66
2022/10/08 00:23:48;;;;;;;16.27;3.28;;;11.40;99.90;;;;;;5038863;28;20164;-66
2022/10/08 00:26:16;;;;;;;16.88;4.40;;;11.40;99.90;;;;;;5054525;28;20076;-66
2022/10/08 00:28:44;;;;;;;18.10;4.10;;;11.40;99.90;;;;;;5055161;28;20049;-66
2022/10/08 00:31:35;;;;;;;14.20;4.25;;;11.30;99.90;;;;;;5054264;28;20048;-66
2022/10/08 00:34:05;;;;;;;13.38;4.40;;;11.30;99.90;;;;;;5054243;28;20048;-66
2022/10/08 00:36:33;;;;;;;20.25;5.07;;;11.30;99.90;;;;;;5055306;28;20052;-66
2022/10/08 00:39:01;;;;;;;13.93;4.55;;;11.20;99.90;;;;;;5038704;28;20175;-66
2022/10/08 00:41:29;;;;;;;18.05;4.13;;;11.20;99.90;;;;;;5054469;28;20099;-66
2022/10/08 00:43:58;;;;;;;20.27;5.15;;;11.20;99.90;;;;;;5054398;28;20098;-66
2022/10/08 00:46:40;;;;;;;13.43;3.50;;;11.20;99.90;;;;;;5055202;28;20473;-66
2022/10/08 00:49:10;;;;;;;20.83;4.95;;;11.20;99.90;;;;;;5037545;28;20078;-66
2022/10/08 00:51:49;;;;;;;14.43;4.22;;;11.20;99.90;;;;;;5055956;28;20045;-66
2022/10/08 00:54:17;;;;;;;16.52;4.90;;;11.20;99.90;;;;;;5054257;28;20048;-66
2022/10/08 00:56:46;;;;;;;16.17;5.22;;;11.20;99.90;;;;;;5054308;28;20106;-66
2022/10/08 00:59:13;;;;;;;12.23;4.50;;;11.20;99.90;;;;;;5038110;28;20045;-66
2022/10/08 01:01:42;;;;;;;15.50;4.35;;;11.10;99.90;;;;;;5037423;28;20535;-66
2022/10/08 01:04:09;;;;;;;19.52;4.50;;;11.10;99.90;;;;;;5055659;28;20048;-66
2022/10/08 01:06:48;;;;;;;14.95;4.97;;;11.10;99.90;;;;;;5054805;28;20135;-66
2022/10/08 01:09:36;;;;;;;14.45;4.68;;;11.10;99.90;;;;;;5053823;28;20049;-66
2022/10/08 01:12:26;;;;;;;17.13;5.28;;;11.10;99.90;;;;;;5054600;28;20416;-66
2022/10/08 01:15:13;;;;;;;17.45;4.00;;;11.00;99.90;;;;;;5053907;28;20048;-66
2022/10/08 01:17:54;;;;;;;17.17;3.78;;;11.00;99.90;;;;;;5054316;28;20122;-66
2022/10/08 01:20:21;;;;;;;15.57;4.88;;;11.00;99.90;;;;;;5054732;28;20048;-66
2022/10/08 01:23:09;;;;;;;13.68;4.95;;;11.00;99.90;;;;;;5054754;28;20048;-66
2022/10/08 01:25:55;;;;;;;15.52;3.75;;;10.90;99.90;;;;;;5052946;28;20123;-66
2022/10/08 01:29:03;;;;;;;13.30;4.95;;;10.90;99.90;;;;;;5054313;28;20041;-66
2022/10/08 01:31:34;;;;;;;13.20;3.50;;;10.90;99.90;;;;;;5046210;28;20442;-66
2022/10/08 01:34:07;;;;;;;18.15;4.32;;;10.80;99.90;;;;;;5055308;28;20041;-66
2022/10/08 01:36:42;;;;;;;18.70;4.03;;;10.80;99.90;;;;;;5054023;28;20078;-66
2022/10/08 01:39:11;;;;;;;18.83;5.15;;;10.80;99.90;;;;;;5037865;28;20432;-66
2022/10/08 01:41:38;;;;;;;11.48;4.13;;;10.80;99.90;;;;;;5054647;28;20556;-66
2022/10/08 01:44:12;;;;;;;16.52;4.03;;;10.70;99.90;;;;;;5053305;28;20041;-66
2022/10/08 01:46:40;;;;;;;17.42;4.72;;;10.70;99.90;;;;;;5036650;28;20476;-66
2022/10/08 01:49:09;;;;;;;17.10;3.85;;;10.70;99.90;;;;;;5053994;28;20126;-66
2022/10/08 01:51:41;;;;;;;11.38;4.30;;;10.60;99.90;;;;;;5053297;28;20369;-66
2022/10/08 01:54:09;;;;;;;15.45;4.22;;;10.70;99.90;;;;;;5053236;28;20045;-66
2022/10/08 01:56:36;;;;;;;10.73;3.55;;;10.60;99.90;;;;;;5036659;28;20417;-66
2022/10/08 01:59:05;;;;;;;14.27;4.22;;;10.60;99.90;;;;;;5052893;28;20045;-66
2022/10/08 02:02:08;;;;;;;14.80;3.95;;;10.60;99.90;;;;;;5053101;28;20464;-66
2022/10/08 02:04:36;;;;;;;25.05;4.78;;;10.50;99.90;;;;;;5054097;28;20076;-66
2022/10/08 02:07:27;;;;;;;17.85;5.25;;;10.50;99.90;;;;;;5052623;28;20037;-66
2022/10/08 02:10:14;;;;;;;17.88;4.47;;;10.50;99.90;;;;;;5036321;28;20443;-66
2022/10/08 02:12:41;;;;;;;16.67;4.78;;;10.50;99.90;;;;;;5052534;28;20037;-66
2022/10/08 02:15:16;;;;;;;10.98;4.38;;;10.40;99.90;;;;;;5052774;28;20041;-66
2022/10/08 02:17:43;;;;;;;22.42;3.83;;;10.40;99.90;;;;;;5053578;28;20040;-66
2022/10/08 02:20:19;;;;;;;12.00;4.10;;;10.40;99.90;;;;;;5053592;28;20037;-66
2022/10/08 02:23:08;;;;;;;17.67;5.15;;;10.40;99.90;;;;;;5052511;28;20048;-66
2022/10/08 02:25:43;;;;;;;16.60;4.28;;;10.40;99.90;;;;;;5042426;28;20102;-66
2022/10/08 02:28:30;;;;;;;12.88;3.75;;;10.30;99.90;;;;;;5037660;28;20045;-66
2022/10/08 02:31:10;;;;;;;17.63;4.78;;;10.30;99.90;;;;;;5049369;28;20499;-66
2022/10/08 02:33:39;;;;;;;16.00;4.28;;;10.30;99.90;;;;;;5037247;28;20048;-66
2022/10/08 02:36:07;;;;;;;;;;;10.20;99.90;;;;;;5051825;28;20056;-66
2022/10/08 02:38:35;;;;;;;15.85;4.13;;;10.20;99.90;;;;;;5085175;28;20049;-66
2022/10/08 02:41:03;;;;;;;11.55;4.13;;;10.20;99.90;;;;;;5052749;28;20419;-66
2022/10/08 02:43:32;;;;;;;15.23;4.28;;;10.20;99.90;;;;;;5052866;28;20040;-66
2022/10/08 02:46:13;;;;;;;13.35;4.22;;;10.10;99.90;;;;;;5052336;28;20091;-66
2022/10/08 02:48:41;;;;;;;10.23;3.80;;;10.10;99.90;;;;;;5053049;28;20099;-65
2022/10/08 02:51:10;;;;;;;34.05;14.20;;;10.10;99.90;;;;;;5052106;28;20048;-69
2022/10/08 02:53:38;;;;;;;70.97;53.22;;;10.10;99.90;;;;;;5069450;28;20049;-65
2022/10/08 02:56:19;;;;;;;268.80;238.88;;;10.10;99.90;;;;;;5036028;28;20040;-65
2022/10/08 02:58:46;;;;;;;66.95;59.38;;;10.10;99.90;;;;;;5069279;28;20373;-65
2022/10/08 03:01:16;;;;;;;18.08;7.65;;;10.10;99.90;;;;;;5052603;28;20111;-65
2022/10/08 03:03:47;;;;;;;12.77;4.50;;;10.00;99.90;;;;;;5052313;28;20424;-65
2022/10/08 03:06:14;;;;;;;9.27;3.83;;;10.00;99.90;;;;;;5052047;28;20186;-65
2022/10/08 03:08:44;;;;;;;10.85;3.72;;;10.00;99.90;;;;;;5054002;28;20040;-65
2022/10/08 03:11:11;;;;;;;;;;;10.00;99.90;;;;;;5053595;28;20041;-65
2022/10/08 03:13:40;;;;;;;12.05;3.67;;;9.90;99.90;;;;;;5068753;28;20001;-65
2022/10/08 03:16:07;;;;;;;14.85;4.50;;;9.90;99.90;;;;;;5051516;28;20073;-65
2022/10/08 03:18:36;;;;;;;10.15;3.28;;;9.90;99.90;;;;;;5052128;28;20090;-65
2022/10/08 03:21:03;;;;;;;12.93;4.28;;;9.80;99.90;;;;;;5052313;28;20049;-65
2022/10/08 03:23:30;;;;;;;16.73;4.15;;;9.80;99.90;;;;;;5035523;28;20053;-65
2022/10/08 03:25:57;;;;;;;10.00;3.40;;;9.70;99.90;;;;;;5053343;28;20052;-65
2022/10/08 03:28:24;;;;;;;13.52;4.07;;;9.70;99.90;;;;;;5053293;28;20049;-65
2022/10/08 03:30:51;;;;;;;15.75;3.53;;;9.70;99.90;;;;;;5051647;28;20079;-65
2022/10/08 03:33:18;;;;;;;11.20;3.72;;;9.70;99.90;;;;;;5051824;28;20137;-65
2022/10/08 03:35:45;;;;;;;14.93;4.90;;;9.60;99.90;;;;;;5035202;28;20041;-65
2022/10/08 03:38:14;;;;;;;14.02;4.13;;;9.60;99.90;;;;;;5052476;28;20041;-67
2022/10/08 03:40:42;;;;;;;11.70;4.17;;;9.60;99.90;;;;;;5052233;28;20131;-65
2022/10/08 03:43:08;;;;;;;14.65;4.07;;;9.60;99.90;;;;;;5052880;28;20274;-65
2022/10/08 03:45:35;;;;;;;12.68;3.75;;;9.60;99.90;;;;;;5051730;28;20049;-65
2022/10/08 03:48:02;;;;;;;10.93;3.55;;;9.50;99.90;;;;;;5054480;28;20045;-65
2022/10/08 03:50:29;;;;;;;10.55;3.58;;;9.50;99.90;;;;;;5056792;28;20469;-65
2022/10/08 03:52:56;;;;;;;14.90;4.07;;;9.50;99.90;;;;;;5056759;28;20037;-65
2022/10/08 03:55:23;;;;;;;14.30;3.88;;;9.50;99.90;;;;;;5055858;28;20037;-65
2022/10/08 03:57:51;;;;;;;9.98;3.13;;;9.50;99.90;;;;;;5038727;28;20056;-66
2022/10/08 04:00:18;;;;;;;15.43;3.97;;;9.50;99.90;;;;;;5055371;28;20094;-65
2022/10/08 04:02:49;;;;;;;16.67;4.15;;;9.50;99.90;;;;;;5055380;28;20052;-65
2022/10/08 04:05:17;;;;;;;12.20;5.03;;;9.40;99.90;;;;;;5055075;28;20048;-65
2022/10/08 04:07:43;;;;;;;12.55;3.65;;;9.40;99.90;;;;;;5038451;28;20052;-65
2022/10/08 04:10:10;;;;;;;13.50;4.10;;;9.40;99.90;;;;;;5055135;28;20048;-65
2022/10/08 04:12:37;;;;;;;17.02;4.93;;;9.30;99.90;;;;;;5056274;28;20060;-65
2022/10/08 04:15:05;;;;;;;13.85;4.38;;;9.30;99.90;;;;;;5055500;28;20041;-65
2022/10/08 04:17:32;;;;;;;16.17;4.18;;;9.30;99.90;;;;;;5039554;28;20087;-65
2022/10/08 04:19:59;;;;;;;12.52;3.40;;;9.30;99.90;;;;;;5054670;28;20045;-65
2022/10/08 04:22:25;;;;;;;17.05;4.28;;;9.30;99.90;;;;;;5038683;28;20076;-65
2022/10/08 04:24:52;;;;;;;9.00;3.35;;;9.20;99.90;;;;;;5056094;28;20112;-65
2022/10/08 04:27:19;;;;;;;12.73;3.75;;;9.20;99.90;;;;;;5055736;28;20079;-65
2022/10/08 04:29:46;;;;;;;9.77;3.45;;;9.20;99.90;;;;;;5054792;28;20491;-65
2022/10/08 04:32:13;;;;;;;14.55;3.70;;;9.30;99.90;;;;;;5054460;28;20090;-65
2022/10/08 04:34:40;;;;;;;13.10;3.67;;;9.20;99.90;;;;;;5054402;28;20099;-65
2022/10/08 04:37:07;;;;;;;11.70;3.60;;;9.20;99.90;;;;;;5038320;28;20461;-65
2022/10/08 04:39:34;;;;;;;12.63;5.45;;;9.20;99.90;;;;;;5037995;28;20087;-65
2022/10/08 04:42:01;;;;;;;14.73;4.45;;;9.20;99.90;;;;;;5054817;28;20095;-65
2022/10/08 04:44:27;;;;;;;14.07;3.40;;;9.10;99.90;;;;;;5054455;28;20440;-65
2022/10/08 04:46:54;;;;;;;12.15;3.97;;;9.10;99.90;;;;;;5055714;28;20106;-65
2022/10/08 04:49:21;;;;;;;19.58;5.18;;;9.10;99.90;;;;;;5054108;28;20080;-65
2022/10/08 04:51:48;;;;;;;12.60;3.53;;;9.10;99.90;;;;;;5054116;28;20041;-65
2022/10/08 04:54:15;;;;;;;15.68;4.40;;;9.10;99.90;;;;;;5054389;28;20114;-65
2022/10/08 04:56:42;;;;;;;14.88;4.20;;;9.10;99.90;;;;;;5055941;28;20049;-65
2022/10/08 04:59:09;;;;;;;13.50;4.43;;;9.10;99.90;;;;;;5053335;28;20527;-65
2022/10/08 05:01:36;;;;;;;11.18;4.03;;;9.10;99.90;;;;;;5053831;28;20051;-65
2022/10/08 05:04:03;;;;;;;9.23;3.47;;;9.00;99.90;;;;;;5053821;28;20080;-65
2022/10/08 05:06:30;;;;;;;10.30;2.72;;;9.00;99.90;;;;;;5053940;28;20079;-65
2022/10/08 05:08:58;;;;;;;15.00;4.32;;;9.00;99.90;;;;;;5053747;28;20041;-65
2022/10/08 05:11:25;;;;;;;10.63;3.10;;;9.00;99.90;;;;;;5054472;28;20315;-65
2022/10/08 05:13:53;;;;;;;9.90;3.20;;;9.00;99.90;;;;;;5054053;28;20140;-65
2022/10/08 05:16:20;;;;;;;9.30;3.28;;;8.90;99.90;;;;;;5053802;28;20091;-65
2022/10/08 05:18:49;;;;;;;13.18;3.72;;;8.90;99.90;;;;;;5055491;28;20045;-65
2022/10/08 05:21:18;;;;;;;8.80;2.70;;;8.90;99.90;;;;;;5054118;28;20151;-65
2022/10/08 05:23:45;;;;;;;16.65;3.92;;;8.90;99.90;;;;;;5054405;28;20044;-65
2022/10/08 05:26:14;;;;;;;9.35;3.22;;;8.90;99.90;;;;;;5054994;28;20098;-65
2022/10/08 05:28:42;;;;;;;11.55;2.83;;;8.90;99.90;;;;;;5055614;28;20041;-65
2022/10/08 05:31:09;;;;;;;14.43;4.22;;;8.80;99.90;;;;;;5053682;28;20064;-65
2022/10/08 05:33:36;;;;;;;11.35;3.38;;;8.80;99.90;;;;;;5055205;28;20354;-65
2022/10/08 05:36:04;;;;;;;16.30;3.50;;;8.80;99.90;;;;;;5053512;28;20084;-65
2022/10/08 05:38:31;;;;;;;9.15;3.00;;;8.80;99.90;;;;;;5054314;28;20045;-65
2022/10/08 05:41:18;;;;;;;11.43;3.47;;;8.70;99.90;;;;;;5054042;28;20045;-65
2022/10/08 05:43:45;;;;;;;11.05;3.13;;;8.70;99.90;;;;;;5037732;28;20442;-65
2022/10/08 05:46:12;;;;;;;12.30;3.60;;;8.70;99.90;;;;;;5053589;28;20136;-65
2022/10/08 05:48:39;;;;;;;8.52;3.28;;;8.60;99.90;;;;;;5053405;28;20049;-65
2022/10/08 05:51:07;;;;;;;11.68;3.13;;;8.60;99.90;;;;;;5054491;28;20048;-65
2022/10/08 05:53:38;;;;;;;10.35;2.90;;;8.60;99.90;;;;;;5053314;28;20094;-65
2022/10/08 05:56:07;;;;;;;10.25;3.53;;;8.50;99.90;;;;;;5036988;28;20045;-65
2022/10/08 05:58:35;;;;;;;9.65;2.95;;;8.50;99.90;;;;;;5053956;28;20045;-65
2022/10/08 06:01:04;;;;;;;11.57;4.10;;;8.50;99.90;;;;;;5053152;28;20048;-65
2022/10/08 06:03:30;;;;;;;8.30;2.97;;;8.50;99.90;;;;;;5036441;28;20049;-65
2022/10/08 06:06:08;;;;;;;6.78;2.30;;;8.40;99.90;;;;;;5052720;28;20041;-65
2022/10/08 06:08:35;;;;;;;11.30;2.95;;;8.40;99.90;;;;;;5054986;28;20103;-65
2022/10/08 06:11:03;;;;;;;8.93;3.35;;;8.40;99.90;;;;;;5052743;28;20473;-65
2022/10/08 06:13:30;;;;;;;10.15;3.30;;;8.40;99.90;;;;;;5052742;28;20127;-65
2022/10/08 06:16:01;;;;;;;11.15;3.97;;;8.30;99.90;;;;;;5052762;28;20091;-65
2022/10/08 06:18:30;;;;;;;11.88;3.80;;;8.30;99.90;;;;;;5052625;28;20044;-65
2022/10/08 06:21:00;;;;;;;6.38;2.88;;;8.30;99.90;;;;;;5054800;28;20091;-65
2022/10/08 06:23:27;;;;;;;11.13;3.63;;;8.30;99.90;;;;;;5052782;28;20048;-65
2022/10/08 06:25:54;;;;;;;12.38;3.75;;;8.30;99.90;;;;;;5052421;28;20106;-65
2022/10/08 06:28:20;;;;;;;14.23;3.80;;;8.30;99.90;;;;;;5052641;28;20102;-65
2022/10/08 06:30:47;;;;;;;14.32;3.28;;;8.30;99.90;;;;;;5052596;28;20049;-65
2022/10/08 06:33:15;;;;;;;11.00;3.25;;;8.30;99.90;;;;;;5052252;28;20071;-65
2022/10/08 06:35:42;;;;;;;10.13;3.40;;;8.30;99.90;;;;;;5052928;28;20419;-65
2022/10/08 06:38:09;;;;;;;12.20;2.88;;;8.30;99.90;;;;;;5036393;28;20102;-65
2022/10/08 06:40:39;;;;;;;11.35;3.05;;;8.30;99.90;;;;;;5052828;28;20522;-65
2022/10/08 06:43:09;;;;;;;6.70;3.13;;;8.30;99.90;;;;;;5037270;28;20072;-65
2022/10/08 06:45:40;;;;;;;11.13;3.70;;;8.30;99.90;;;;;;5052822;28;20045;-65
2022/10/08 06:48:07;;;;;;;9.30;3.47;;;8.30;99.90;;;;;;5036459;28;20049;-65
2022/10/08 06:50:34;;;;;;;13.93;3.45;;;8.30;99.90;;;;;;5052420;28;20049;-65
2022/10/08 06:53:05;;;;;;;12.43;4.38;;;8.30;99.90;;;;;;5052768;28;20037;-65
2022/10/08 06:55:32;;;;;;;12.57;3.28;;;8.30;99.90;;;;;;5052204;28;20469;-65
2022/10/08 06:57:59;;;;;;;9.38;2.78;;;8.40;99.90;;;;;;5051575;28;20052;-65
2022/10/08 07:00:26;;;;;;;7.93;2.92;;;8.40;99.90;;;;;;5052413;28;20040;-65
2022/10/08 07:02:53;;;;;;;10.50;4.25;;;8.40;99.90;;;;;;5051808;28;20094;-65
2022/10/08 07:05:20;;;;;;;10.77;2.85;;;8.40;99.90;;;;;;5051811;28;20098;-65
2022/10/08 07:07:47;;;;;;;62.72;44.33;;;8.50;99.90;;;;;;5052038;28;20106;-65
2022/10/08 07:10:13;;;;;;;806.13;621.25;;;8.50;99.90;;;;;;5068683;28;20095;-65
2022/10/08 07:12:44;;;;;;;53.38;40.28;;;8.60;99.90;;;;;;5053472;28;20045;-65
2022/10/08 07:15:11;;;;;;;28.25;15.77;;;8.60;99.90;;;;;;5053504;28;20079;-65
2022/10/08 07:17:38;;;;;;;14.35;8.05;;;8.60;99.90;;;;;;5051557;28;20048;-65
2022/10/08 07:20:06;;;;;;;14.00;5.32;;;8.60;99.90;;;;;;5052799;28;20037;-65
2022/10/08 07:22:32;;;;;;;6.35;2.80;;;8.70;99.90;;;;;;5053476;28;20131;-65
2022/10/08 07:25:00;;;;;;;11.02;3.72;;;8.80;99.90;;;;;;5039515;28;20040;-65
2022/10/08 07:27:27;;;;;;;7.28;3.40;;;8.80;99.90;;;;;;5056100;28;20107;-65
2022/10/08 07:29:54;;;;;;;11.57;2.88;;;8.80;99.90;;;;;;5057514;28;20036;-65
2022/10/08 07:32:20;;;;;;;8.35;3.20;;;8.80;99.90;;;;;;5055983;28;20099;-65
2022/10/08 07:34:47;;;;;;;13.68;3.72;;;8.90;99.90;;;;;;5056901;28;20044;-65
2022/10/08 07:37:14;;;;;;;13.27;3.42;;;8.90;99.90;;;;;;5055834;28;20365;-65
2022/10/08 07:39:41;;;;;;;11.50;3.38;;;9.00;99.90;;;;;;5055757;28;20080;-66
2022/10/08 07:42:08;;;;;;;6.82;2.63;;;9.00;99.90;;;;;;5039556;28;20055;-66
2022/10/08 07:44:35;;;;;;;7.80;2.78;;;9.10;99.90;;;;;;5055910;28;20102;-66
2022/10/08 07:47:02;;;;;;;10.40;3.47;;;9.10;99.90;;;;;;5056402;28;20079;-66
2022/10/08 07:49:28;;;;;;;10.75;3.28;;;9.20;99.90;;;;;;5056904;28;20037;-66
2022/10/08 07:51:55;;;;;;;10.38;2.50;;;9.20;99.90;;;;;;5057941;28;20095;-66
2022/10/08 07:54:22;;;;;;;39.25;26.95;;;9.30;99.90;;;;;;5055533;28;20045;-73
2022/10/08 07:56:49;;;;;;;30.17;22.95;;;9.30;99.90;;;;;;5056362;28;20072;-66
2022/10/08 07:59:16;;;;;;;60.95;39.08;;;9.40;99.90;;;;;;5055644;28;20087;-66
2022/10/08 08:01:43;;;;;;;43.75;29.85;;;9.40;99.90;;;;;;5057411;28;20159;-66
2022/10/08 08:04:10;;;;;;;28.42;13.57;;;9.50;99.90;;;;;;5055060;28;20041;-66
2022/10/08 08:06:46;;;;;;;12.75;3.83;;;9.50;99.90;;;;;;5055110;28;20477;-66
2022/10/08 08:09:14;;;;;;;11.38;3.42;;;9.60;99.90;;;;;;5039351;28;20067;-68
2022/10/08 08:11:42;;;;;;;8.02;2.97;;;9.60;99.90;;;;;;5054851;28;20048;-67
2022/10/08 08:14:08;;;;;;;16.23;8.00;;;9.70;99.90;;;;;;5055879;28;20373;-67
2022/10/08 08:16:35;;;;;;;16.08;3.85;;;9.70;99.90;;;;;;5038566;28;20473;-69
2022/10/08 08:19:03;;;;;;;10.23;2.65;;;9.80;99.90;;;;;;5056692;28;20094;-65
2022/10/08 08:21:31;;;;;;;12.77;4.03;;;9.80;99.90;;;;;;5038197;28;20504;-67
2022/10/08 08:24:02;;;;;;;717.90;513.20;;;9.90;99.90;;;;;;5055664;28;20076;-65
2022/10/08 08:26:34;;;;;;;46.67;36.25;;;9.90;99.90;;;;;;5056405;28;20045;-65
2022/10/08 08:29:03;;;;;;;24.17;12.75;;;10.00;99.90;;;;;;5070804;28;20045;-65
2022/10/08 08:31:32;;;;;;;21.50;12.23;;;10.10;99.90;;;;;;5056143;28;20098;-66
2022/10/08 08:34:01;;;;;;;20.17;7.60;;;10.10;99.90;;;;;;5055281;28;20459;-66
2022/10/08 08:36:29;;;;;;;6.63;3.53;;;10.20;99.90;;;;;;5054019;28;20045;-66
2022/10/08 08:38:56;;;;;;;7.63;2.60;;;10.20;99.90;;;;;;5055899;28;20076;-69
2022/10/08 08:41:42;;;;;;;6.80;2.45;;;10.30;99.90;;;;;;5055092;28;20047;-66
2022/10/08 08:44:15;;;;;;;8.63;2.40;;;10.30;99.90;;;;;;5054141;28;20469;-65
2022/10/08 08:46:49;;;;;;;7.47;2.83;;;10.40;99.90;;;;;;5055039;28;20388;-65
2022/10/08 08:49:24;;;;;;;12.60;2.53;;;10.40;99.90;;;;;;5055044;28;20041;-66
2022/10/08 08:51:51;;;;;;;77.32;62.50;;;10.40;99.90;;;;;;5055563;28;20045;-70
2022/10/08 08:54:19;;;;;;;151.32;113.50;;;10.50;99.90;;;;;;5054205;28;20041;-69
2022/10/08 08:56:46;;;;;;;45.22;33.75;;;10.60;99.90;;;;;;5071136;28;20049;-66
2022/10/08 08:59:26;;;;;;;17.23;8.50;;;10.70;99.90;;;;;;5054248;28;20045;-66
2022/10/08 09:01:57;;;;;;;9.82;3.97;;;10.70;99.90;;;;;;5038242;28;20417;-66
2022/10/08 09:04:46;;;;;;;10.77;2.97;;;10.80;99.90;;;;;;5038569;28;20376;-66
2022/10/08 09:07:19;;;;;;;7.47;2.88;;;10.80;99.90;;;;;;5054828;28;20078;-66
2022/10/08 09:09:54;;;;;;;15.15;3.28;;;10.90;99.90;;;;;;5053847;28;20071;-66
2022/10/08 09:12:24;;;;;;;14.68;3.65;;;10.90;99.90;;;;;;5054092;28;20090;-66
2022/10/08 09:14:56;;;;;;;10.60;3.03;;;10.90;99.90;;;;;;5055271;28;20053;-66
2022/10/08 09:17:34;;;;;;;9.85;3.42;;;10.90;99.90;;;;;;5054831;28;20040;-66
2022/10/08 09:20:01;;;;;;;8.93;3.15;;;10.90;99.90;;;;;;5054105;28;20049;-66
2022/10/08 09:22:30;;;;;;;9.38;3.15;;;11.00;99.90;;;;;;5053807;28;20071;-66
2022/10/08 09:24:59;;;;;;;10.30;3.30;;;11.00;99.90;;;;;;5038986;28;20058;-66
2022/10/08 09:27:55;;;;;;;12.25;3.70;;;11.00;99.90;;;;;;5054737;28;20045;-66
2022/10/08 09:30:22;;;;;;;13.75;3.85;;;11.00;99.90;;;;;;5053825;28;20048;-66
2022/10/08 09:32:56;;;;;;;7.13;2.17;;;11.10;99.90;;;;;;5054627;28;20385;-66
2022/10/08 09:35:23;;;;;;;6.95;3.10;;;11.20;99.90;;;;;;5037433;28;20053;-66
2022/10/08 09:37:50;;;;;;;11.30;2.90;;;11.30;99.90;;;;;;5053716;28;20071;-65
2022/10/08 09:40:18;;;;;;;9.02;2.95;;;11.30;99.90;;;;;;5053919;28;20487;-66
2022/10/08 09:43:04;;;;;;;13.15;2.72;;;11.40;99.90;;;;;;5053435;28;20106;-65
2022/10/08 09:45:45;;;;;;;10.18;2.90;;;11.40;99.90;;;;;;5053455;28;20533;-67
2022/10/08 09:48:25;;;;;;;327.27;277.15;;;11.40;99.90;;;;;;5053091;28;20088;-66
2022/10/08 09:51:09;;;;;;;42.92;35.42;;;11.50;99.90;;;;;;5054446;28;20106;-66
2022/10/08 09:53:57;;;;;;;21.65;9.60;;;11.60;99.90;;;;;;5055302;28;20046;-67
2022/10/08 09:56:26;;;;;;;17.48;5.53;;;11.60;99.90;;;;;;5037336;28;20099;-67
2022/10/08 09:58:58;;;;;;;13.70;3.78;;;11.70;99.90;;;;;;5053059;28;20053;-67
2022/10/08 10:01:25;;;;;;;19.17;8.23;;;11.70;99.90;;;;;;5036858;28;20041;-67
2022/10/08 10:03:56;;;;;;;14.65;7.05;;;11.80;99.90;;;;;;5053108;28;20056;-70
2022/10/08 10:06:27;;;;;;;15.73;6.18;;;11.80;99.90;;;;;;5053017;28;20393;-68
2022/10/08 10:09:12;;;;;;;10.25;3.22;;;11.90;99.90;;;;;;5053530;28;20049;-68
2022/10/08 10:11:46;;;;;;;15.45;3.65;;;12.00;99.90;;;;;;5054229;28;20465;-68
2022/10/08 10:14:20;;;;;;;10.00;2.58;;;12.00;99.90;;;;;;5036653;28;20041;-67
2022/10/08 10:16:48;;;;;;;11.27;2.72;;;12.00;99.90;;;;;;5053758;28;20094;-68
2022/10/08 10:19:17;;;;;;;11.27;2.72;;;12.00;99.90;;;;;;5052524;28;20404;-68
2022/10/08 10:21:44;;;;;;;12.13;3.78;;;12.10;99.90;;;;;;5052890;28;20451;-68
2022/10/08 10:24:32;;;;;;;8.60;3.53;;;12.00;99.90;;;;;;5053717;28;20045;-68
2022/10/08 10:27:15;;;;;;;12.57;2.80;;;12.10;99.90;;;;;;5052726;28;20064;-67
2022/10/08 10:30:13;;;;;;;8.80;2.97;;;12.10;99.90;;;;;;5053197;28;20053;-68
2022/10/08 10:32:58;;;;;;;12.07;3.00;;;12.10;99.90;;;;;;5054074;28;20362;-68
2022/10/08 10:35:27;;;;;;;11.20;3.20;;;12.20;99.90;;;;;;5053244;28;20111;-68
2022/10/08 10:38:15;;;;;;;13.38;3.42;;;12.20;99.90;;;;;;5052450;28;20048;-68
2022/10/08 10:40:46;;;;;;;9.50;3.58;;;12.20;99.90;;;;;;5053207;28;20067;-68
2022/10/08 10:43:15;;;;;;;8.20;2.47;;;12.30;99.90;;;;;;5053270;28;20431;-68
2022/10/08 10:45:45;;;;;;;11.70;2.88;;;12.40;99.90;;;;;;5052486;28;20056;-68
2022/10/08 10:48:12;;;;;;;;;;;12.50;99.90;;;;;;5035911;28;20503;-67
2022/10/08 10:50:43;;;;;;;12.90;3.05;;;12.40;99.90;;;;;;5085245;28;19971;-68
2022/10/08 10:53:28;;;;;;;10.80;2.55;;;12.50;99.90;;;;;;5036395;28;20102;-68
2022/10/08 10:56:17;;;;;;;7.43;3.15;;;12.50;99.90;;;;;;5051908;28;20088;-68
2022/10/08 10:58:59;;;;;;;17.63;3.95;;;12.60;99.90;;;;;;5051282;28;20465;-68
2022/10/08 11:01:47;;;;;;;9.77;3.17;;;12.60;99.90;;;;;;5054170;28;20067;-68
2022/10/08 11:04:31;;;;;;;9.07;3.13;;;12.80;99.90;;;;;;5054140;28;20045;-68
2022/10/08 11:07:01;;;;;;;10.65;3.58;;;12.80;99.90;;;;;;5052207;28;20107;-68
2022/10/08 11:09:32;;;;;;;8.27;2.55;;;12.90;99.90;;;;;;5051919;28;20056;-68
2022/10/08 11:12:13;;;;;;;13.07;3.75;;;12.80;99.90;;;;;;5051720;28;20049;-68
2022/10/08 11:14:58;;;;;;;13.80;2.80;;;12.80;99.90;;;;;;5052617;28;20044;-68
2022/10/08 11:17:43;;;;;;;14.07;3.53;;;12.80;99.90;;;;;;5035175;28;20098;-68
2022/10/08 11:20:27;;;;;;;7.72;2.05;;;13.00;99.90;;;;;;5053650;28;20049;-68
2022/10/08 11:23:02;;;;;;;9.23;2.75;;;13.00;99.90;;;;;;5051973;28;20119;-68
2022/10/08 11:25:57;;;;;;;11.65;3.17;;;13.00;99.90;;;;;;5053940;28;20041;-68
2022/10/08 11:29:06;;;;;;;10.15;2.50;;;13.00;99.90;;;;;;5047633;28;20136;-67
2022/10/08 11:31:39;;;;;;;8.63;2.40;;;13.00;99.90;;;;;;5036397;28;20174;-68
2022/10/08 11:34:13;;;;;;;11.93;2.78;;;13.10;99.90;;;;;;5052698;28;20427;-68
2022/10/08 11:36:45;;;;;;;11.00;2.22;;;13.10;99.90;;;;;;5051520;28;20084;-68
2022/10/08 11:39:30;;;;;;;7.70;2.60;;;13.10;99.90;;;;;;5051525;28;20083;-68
2022/10/08 11:42:14;;;;;;;7.22;2.33;;;13.20;99.90;;;;;;5053554;28;20049;-68
2022/10/08 11:44:41;;;;;;;11.30;2.80;;;13.40;99.90;;;;;;5051892;28;20056;-68
2022/10/08 11:47:42;;;;;;;6.93;2.22;;;13.50;99.90;;;;;;5051397;28;20044;-68
2022/10/08 11:50:29;;;;;;;8.75;2.78;;;13.50;99.90;;;;;;5052543;28;20049;-68
2022/10/08 11:53:01;;;;;;;12.07;2.58;;;13.50;99.90;;;;;;5053539;28;20053;-68
2022/10/08 11:55:31;;;;;;;8.35;2.40;;;13.60;99.90;;;;;;5052239;28;20045;-68
2022/10/08 11:58:03;;;;;;;13.63;3.40;;;13.70;99.90;;;;;;5051161;28;20106;-67
2022/10/08 12:00:44;;;;;;;11.20;2.47;;;13.80;99.90;;;;;;5052328;28;20459;-67
2022/10/08 12:03:17;;;;;;;6.80;2.33;;;13.80;99.90;;;;;;5035019;28;20044;-67
2022/10/08 12:05:45;;;;;;;8.52;2.58;;;13.90;99.90;;;;;;5053234;28;20102;-68
2022/10/08 12:08:51;;;;;;;11.63;3.50;;;13.90;99.90;;;;;;5052604;28;20056;-68
2022/10/08 12:11:31;;;;;;;7.10;1.98;;;13.90;99.90;;;;;;5056325;28;20546;-68
2022/10/08 12:14:10;;;;;;;6.93;2.60;;;14.00;99.90;;;;;;5056069;28;20059;-69
2022/10/08 12:16:55;;;;;;;8.15;2.17;;;14.00;99.90;;;;;;5056366;28;20323;-68
2022/10/08 12:19:37;;;;;;;11.10;2.30;;;14.10;99.90;;;;;;5054830;28;20477;-69
2022/10/08 12:22:15;;;;;;;8.75;1.67;;;14.20;99.90;;;;;;5056842;28;20045;-68
2022/10/08 12:24:47;;;;;;;7.28;2.13;;;14.10;99.90;;;;;;5055118;28;20045;-68
2022/10/08 12:27:16;;;;;;;25.27;15.25;;;14.10;99.90;;;;;;5056135;28;20504;-67
2022/10/08 12:29:58;;;;;;;10.40;3.78;;;14.10;99.90;;;;;;5055833;28;20048;-68
2022/10/08 12:32:40;;;;;;;8.25;2.83;;;14.10;99.90;;;;;;5056006;28;20041;-68
2022/10/08 12:35:19;;;;;;;8.07;2.10;;;14.10;99.90;;;;;;5055729;28;20041;-68
2022/10/08 12:38:07;;;;;;;6.18;2.00;;;14.10;99.90;;;;;;5037970;28;20049;-68
2022/10/08 12:40:37;;;;;;;5.30;2.22;;;14.10;99.90;;;;;;5054743;28;20420;-68
2022/10/08 12:43:25;;;;;;;7.45;2.22;;;14.10;99.90;;;;;;5055857;28;20044;-68
2022/10/08 12:46:17;;;;;;;7.82;2.20;;;14.20;99.90;;;;;;5055347;28;20056;-68
2022/10/08 12:49:00;;;;;;;6.45;2.58;;;14.20;99.90;;;;;;5054873;28;20049;-68
2022/10/08 12:51:53;;;;;;;6.55;1.98;;;14.20;99.90;;;;;;5054555;28;20477;-68
2022/10/08 12:54:24;;;;;;;6.00;1.75;;;14.20;99.90;;;;;;5051171;28;20443;-68
2022/10/08 12:56:51;;;;;;;5.93;1.92;;;14.30;99.90;;;;;;5038845;28;20102;-68
2022/10/08 12:59:22;;;;;;;6.07;2.45;;;14.30;99.90;;;;;;5054082;28;20107;-68
2022/10/08 13:01:52;;;;;;;8.80;2.42;;;14.30;99.90;;;;;;5056010;28;20049;-67
2022/10/08 13:04:28;;;;;;;8.52;2.83;;;14.30;99.90;;;;;;5054311;28;20128;-68
2022/10/08 13:06:55;;;;;;;6.82;2.10;;;14.30;99.90;;;;;;5055179;28;20063;-67
2022/10/08 13:09:25;;;;;;;6.68;2.05;;;14.30;99.90;;;;;;5054970;28;20094;-68